createdAt,value
2018-08-23T16:52:40.410Z,100407.53
2018-08-23T16:55:44.442Z,100406.41
2018-08-23T16:58:59.539Z,100406.45
2018-08-23T17:02:03.749Z,100410.58
2018-08-23T17:05:08.237Z,100415.88
2018-08-23T17:08:12.224Z,100414.11
2018-08-23T17:11:16.388Z,100407.73
2018-08-23T17:14:20.377Z,100404.15
2018-08-23T17:17:27.794Z,100403.20
2018-08-23T17:20:31.758Z,100406.53
2018-08-23T17:23:35.801Z,100408.02
2018-08-23T17:26:41.762Z,100405.78
2018-08-23T17:29:45.846Z,100408.27
2018-08-23T17:32:49.932Z,100403.22
2018-08-23T17:35:54.005Z,100402.26
2018-08-23T17:38:58.004Z,100397.36
2018-08-23T17:42:04.599Z,100399.51
2018-08-23T17:45:08.736Z,100400.98
2018-08-23T17:48:12.890Z,100393.95
2018-08-23T17:51:16.913Z,100390.39
2018-08-23T17:54:20.875Z,100394.17
2018-08-23T17:57:28.238Z,100392.23
2018-08-23T18:00:32.224Z,100392.56
2018-08-23T18:03:36.204Z,100391.59
2018-08-23T18:06:40.234Z,100386.70
2018-08-23T18:09:44.459Z,100379.17
2018-08-23T18:12:52.144Z,100377.86
2018-08-23T18:16:01.716Z,100374.75
2018-08-23T18:19:06.415Z,100369.33
2018-08-23T18:22:10.459Z,100373.58
2018-08-23T18:25:14.559Z,100370.98
2018-08-23T18:28:22.211Z,100370.16
2018-08-23T18:31:26.175Z,100361.48
2018-08-23T18:34:30.192Z,100373.60
2018-08-23T18:37:34.220Z,100370.97
2018-08-23T18:40:38.391Z,100369.97
2018-08-23T18:43:42.371Z,100371.71
2018-08-23T18:46:46.783Z,100366.16
2018-08-23T18:49:50.814Z,100371.53
2018-08-23T18:52:54.866Z,100369.05
2018-08-23T18:55:58.866Z,100363.28
2018-08-23T18:59:02.839Z,100371.95
2018-08-23T19:02:06.899Z,100366.19
2018-08-23T19:05:10.932Z,100372.36
2018-08-23T19:08:15.126Z,100368.42
2018-08-23T19:18:29.389Z,100364.33
2018-08-23T19:21:33.660Z,100364.78
2018-08-23T19:24:37.683Z,100367.52
2018-08-23T19:27:41.691Z,100361.74
2018-08-23T19:30:46.031Z,100363.52
2018-08-23T19:33:50.099Z,100363.13
2018-08-23T19:36:54.262Z,100358.86
2018-08-23T19:39:58.308Z,100359.79
2018-08-23T19:43:02.673Z,100353.55
2018-08-23T19:46:12.555Z,100354.47
2018-08-23T19:49:22.063Z,100352.13
2018-08-23T19:52:26.223Z,100349.13
2018-08-23T19:55:30.253Z,100347.92
2018-08-23T19:58:34.265Z,100344.47
2018-08-23T20:01:38.320Z,100341.63
2018-08-23T20:04:43.046Z,100344.70
2018-08-23T20:07:47.100Z,100334.88
2018-08-23T20:10:51.144Z,100332.36
2018-08-23T20:13:55.203Z,100328.08
2018-08-23T20:16:59.526Z,100323.30
2018-08-23T20:20:03.510Z,100317.86
2018-08-23T20:23:07.603Z,100322.20
2018-08-23T20:26:11.664Z,100326.73
2018-08-23T20:29:15.663Z,100329.91
2018-08-23T20:32:19.816Z,100329.05
2018-08-23T20:35:23.999Z,100333.06
2018-08-23T20:38:28.036Z,100326.74
2018-08-23T20:41:32.043Z,100327.67
2018-08-23T20:44:36.057Z,100323.73
2018-08-23T20:47:40.125Z,100321.35
2018-08-23T20:50:58.706Z,100314.91
2018-08-23T20:54:02.756Z,100318.45
2018-08-23T20:57:06.751Z,100319.50
2018-08-23T21:00:10.770Z,100316.70
2018-08-23T21:03:15.018Z,100317.56
2018-08-23T21:06:19.393Z,100314.43
2018-08-23T21:09:23.681Z,100314.72
2018-08-23T21:12:27.707Z,100308.63
2018-08-23T21:15:31.726Z,100306.27
2018-08-23T21:18:35.755Z,100302.13
2018-08-23T21:21:39.760Z,100296.55
2018-08-23T21:24:44.006Z,100301.23
2018-08-23T21:27:48.039Z,100295.80
2018-08-23T21:34:33.849Z,100292.25
2018-08-23T21:37:37.853Z,100289.42
2018-08-23T21:40:42.091Z,100296.52
2018-08-23T21:43:46.129Z,100296.03
2018-08-23T21:46:53.963Z,100293.23
2018-08-23T21:49:58.220Z,100294.12
2018-08-23T21:53:02.326Z,100291.03
2018-08-23T21:56:06.743Z,100289.53
2018-08-23T21:59:10.855Z,100291.31
2018-08-23T22:02:17.783Z,100285.91
2018-08-23T22:05:21.818Z,100287.36
2018-08-23T22:08:25.894Z,100283.31
2018-08-23T22:11:30.025Z,100287.41
2018-08-23T22:14:34.109Z,100290.16
2018-08-23T22:17:38.405Z,100287.51
2018-08-23T22:20:42.605Z,100286.55
2018-08-23T22:23:46.954Z,100283.31
2018-08-23T22:26:51.044Z,100289.00
2018-08-23T22:29:55.203Z,100283.65
2018-08-23T22:32:59.259Z,100280.23
2018-08-23T22:36:03.526Z,100273.72
2018-08-23T22:39:08.398Z,100272.41
2018-08-23T22:42:12.422Z,100268.22
2018-08-23T22:45:16.582Z,100264.80
2018-08-23T22:48:20.658Z,100261.56
2018-08-23T22:51:24.783Z,100268.08
2018-08-23T22:54:28.810Z,100256.02
2018-08-23T22:57:32.800Z,100259.93
2018-08-23T23:00:42.566Z,100257.66
2018-08-23T23:03:52.125Z,100254.91
2018-08-23T23:06:57.463Z,100256.58
2018-08-23T23:10:01.972Z,100238.69
2018-08-23T23:13:05.958Z,100243.42
2018-08-23T23:16:10.079Z,100239.99
2018-08-23T23:19:14.430Z,100237.24
2018-08-23T23:22:18.414Z,100233.19
2018-08-23T23:25:22.455Z,100230.11
2018-08-23T23:28:26.699Z,100229.14
2018-08-23T23:31:30.706Z,100226.87
2018-08-23T23:34:34.798Z,100222.00
2018-08-23T23:37:38.841Z,100222.00
2018-08-23T23:40:42.875Z,100223.97
2018-08-23T23:43:46.947Z,100217.46
2018-08-23T23:46:50.998Z,100215.19
2018-08-23T23:49:55.311Z,100211.28
2018-08-23T23:52:59.399Z,100208.68
2018-08-23T23:56:05.506Z,100211.66
2018-08-23T23:59:09.563Z,100205.14
